sensor_id;sensor_type;location;lat;lon;timestamp;P1;durP1;ratioP1;P2;durP2;ratioP2
70026;SDS011;57506;50.092;15.804;2023-03-26T00:00:10;5.80;;;0.80;;
70026;SDS011;57506;50.092;15.804;2023-03-26T00:02:37;4.60;;;0.90;;
70026;SDS011;57506;50.092;15.804;2023-03-26T00:05:04;3.95;;;0.90;;
70026;SDS011;57506;50.092;15.804;2023-03-26T00:07:30;5.27;;;1.00;;
70026;SDS011;57506;50.092;15.804;2023-03-26T00:09:56;4.97;;;0.68;;
70026;SDS011;57506;50.092;15.804;2023-03-26T00:12:23;5.80;;;1.00;;
70026;SDS011;57506;50.092;15.804;2023-03-26T00:14:49;4.57;;;1.00;;
70026;SDS011;57506;50.092;15.804;2023-03-26T00:17:16;4.95;;;1.10;;
70026;SDS011;57506;50.092;15.804;2023-03-26T00:19:42;7.47;;;1.25;;
70026;SDS011;57506;50.092;15.804;2023-03-26T00:22:08;5.33;;;1.10;;
70026;SDS011;57506;50.092;15.804;2023-03-26T00:24:38;5.72;;;1.30;;
70026;SDS011;57506;50.092;15.804;2023-03-26T00:27:04;4.43;;;0.80;;
70026;SDS011;57506;50.092;15.804;2023-03-26T00:29:30;7.10;;;1.17;;
70026;SDS011;57506;50.092;15.804;2023-03-26T00:31:57;5.63;;;1.23;;
70026;SDS011;57506;50.092;15.804;2023-03-26T00:34:23;4.95;;;1.02;;
70026;SDS011;57506;50.092;15.804;2023-03-26T00:36:50;5.30;;;1.00;;
70026;SDS011;57506;50.092;15.804;2023-03-26T00:39:18;5.38;;;1.40;;
70026;SDS011;57506;50.092;15.804;2023-03-26T00:41:45;5.00;;;1.17;;
70026;SDS011;57506;50.092;15.804;2023-03-26T00:44:11;5.87;;;0.90;;
70026;SDS011;57506;50.092;15.804;2023-03-26T00:46:37;4.05;;;0.90;;
70026;SDS011;57506;50.092;15.804;2023-03-26T00:49:04;5.45;;;1.02;;
70026;SDS011;57506;50.092;15.804;2023-03-26T00:51:30;3.73;;;0.77;;
70026;SDS011;57506;50.092;15.804;2023-03-26T00:53:57;4.18;;;1.05;;
70026;SDS011;57506;50.092;15.804;2023-03-26T00:56:23;3.97;;;0.70;;
70026;SDS011;57506;50.092;15.804;2023-03-26T00:58:49;4.57;;;0.88;;
70026;SDS011;57506;50.092;15.804;2023-03-26T01:01:15;4.17;;;0.90;;
70026;SDS011;57506;50.092;15.804;2023-03-26T01:03:51;4.95;;;0.90;;
70026;SDS011;57506;50.092;15.804;2023-03-26T01:06:24;4.47;;;1.00;;
70026;SDS011;57506;50.092;15.804;2023-03-26T01:08:56;4.25;;;0.90;;
70026;SDS011;57506;50.092;15.804;2023-03-26T01:11:32;3.80;;;0.80;;
70026;SDS011;57506;50.092;15.804;2023-03-26T01:14:01;4.22;;;1.02;;
70026;SDS011;57506;50.092;15.804;2023-03-26T01:19:23;5.63;;;1.10;;
70026;SDS011;57506;50.092;15.804;2023-03-26T01:21:56;4.53;;;0.73;;
70026;SDS011;57506;50.092;15.804;2023-03-26T01:24:22;5.70;;;0.83;;
70026;SDS011;57506;50.092;15.804;2023-03-26T01:32:58;3.30;;;0.50;;
70026;SDS011;57506;50.092;15.804;2023-03-26T01:46:04;2.40;;;0.43;;
70026;SDS011;57506;50.092;15.804;2023-03-26T01:48:39;6.20;;;0.77;;
70026;SDS011;57506;50.092;15.804;2023-03-26T01:51:07;4.65;;;0.55;;
70026;SDS011;57506;50.092;15.804;2023-03-26T01:53:36;5.20;;;1.17;;
70026;SDS011;57506;50.092;15.804;2023-03-26T01:58:40;3.37;;;0.50;;
70026;SDS011;57506;50.092;15.804;2023-03-26T02:01:17;4.85;;;0.80;;
70026;SDS011;57506;50.092;15.804;2023-03-26T02:03:57;4.00;;;0.70;;
70026;SDS011;57506;50.092;15.804;2023-03-26T02:06:38;5.10;;;0.70;;
70026;SDS011;57506;50.092;15.804;2023-03-26T02:09:20;3.20;;;0.80;;
70026;SDS011;57506;50.092;15.804;2023-03-26T02:11:52;4.00;;;0.50;;
70026;SDS011;57506;50.092;15.804;2023-03-26T02:14:19;5.05;;;0.90;;
70026;SDS011;57506;50.092;15.804;2023-03-26T02:16:45;4.05;;;0.80;;
70026;SDS011;57506;50.092;15.804;2023-03-26T02:19:12;4.75;;;0.70;;
70026;SDS011;57506;50.092;15.804;2023-03-26T02:21:46;3.30;;;0.80;;
70026;SDS011;57506;50.092;15.804;2023-03-26T02:24:16;4.10;;;0.50;;
70026;SDS011;57506;50.092;15.804;2023-03-26T02:26:44;4.25;;;0.50;;
70026;SDS011;57506;50.092;15.804;2023-03-26T02:29:11;5.72;;;0.80;;
70026;SDS011;57506;50.092;15.804;2023-03-26T02:31:38;4.13;;;0.85;;
70026;SDS011;57506;50.092;15.804;2023-03-26T02:34:03;4.60;;;0.70;;
70026;SDS011;57506;50.092;15.804;2023-03-26T02:36:29;4.10;;;0.60;;
70026;SDS011;57506;50.092;15.804;2023-03-26T02:38:54;4.93;;;0.95;;
70026;SDS011;57506;50.092;15.804;2023-03-26T02:41:22;4.90;;;0.90;;
70026;SDS011;57506;50.092;15.804;2023-03-26T02:43:47;5.47;;;1.00;;
70026;SDS011;57506;50.092;15.804;2023-03-26T02:46:13;4.68;;;0.90;;
70026;SDS011;57506;50.092;15.804;2023-03-26T02:48:38;6.60;;;1.37;;
70026;SDS011;57506;50.092;15.804;2023-03-26T02:51:05;7.90;;;0.93;;
70026;SDS011;57506;50.092;15.804;2023-03-26T02:53:31;5.23;;;1.20;;
70026;SDS011;57506;50.092;15.804;2023-03-26T02:55:57;6.45;;;1.40;;
70026;SDS011;57506;50.092;15.804;2023-03-26T02:58:24;7.18;;;1.20;;
70026;SDS011;57506;50.092;15.804;2023-03-26T03:00:54;5.53;;;1.10;;
70026;SDS011;57506;50.092;15.804;2023-03-26T03:03:24;4.95;;;1.08;;
70026;SDS011;57506;50.092;15.804;2023-03-26T03:05:54;5.37;;;0.70;;
70026;SDS011;57506;50.092;15.804;2023-03-26T03:08:22;4.53;;;0.90;;
70026;SDS011;57506;50.092;15.804;2023-03-26T03:13:32;4.78;;;0.77;;
70026;SDS011;57506;50.092;15.804;2023-03-26T03:15:58;4.03;;;0.90;;
70026;SDS011;57506;50.092;15.804;2023-03-26T03:18:23;5.13;;;0.80;;
70026;SDS011;57506;50.092;15.804;2023-03-26T03:20:49;3.75;;;0.70;;
70026;SDS011;57506;50.092;15.804;2023-03-26T03:23:15;4.43;;;1.02;;
70026;SDS011;57506;50.092;15.804;2023-03-26T03:25:41;4.53;;;0.50;;
70026;SDS011;57506;50.092;15.804;2023-03-26T03:28:07;3.92;;;0.60;;
70026;SDS011;57506;50.092;15.804;2023-03-26T03:30:33;3.40;;;0.60;;
70026;SDS011;57506;50.092;15.804;2023-03-26T03:32:59;3.60;;;0.88;;
70026;SDS011;57506;50.092;15.804;2023-03-26T03:35:26;4.60;;;0.50;;
70026;SDS011;57506;50.092;15.804;2023-03-26T03:37:52;3.80;;;0.70;;
70026;SDS011;57506;50.092;15.804;2023-03-26T03:40:18;4.45;;;0.77;;
70026;SDS011;57506;50.092;15.804;2023-03-26T03:42:44;6.50;;;0.70;;
70026;SDS011;57506;50.092;15.804;2023-03-26T03:45:10;4.00;;;0.75;;
70026;SDS011;57506;50.092;15.804;2023-03-26T03:47:36;4.72;;;0.60;;
70026;SDS011;57506;50.092;15.804;2023-03-26T03:50:02;4.13;;;0.77;;
70026;SDS011;57506;50.092;15.804;2023-03-26T03:52:29;3.50;;;0.50;;
70026;SDS011;57506;50.092;15.804;2023-03-26T03:54:54;5.22;;;0.80;;
70026;SDS011;57506;50.092;15.804;2023-03-26T03:57:21;3.53;;;0.40;;
70026;SDS011;57506;50.092;15.804;2023-03-26T03:59:47;5.68;;;0.50;;
70026;SDS011;57506;50.092;15.804;2023-03-26T04:02:14;5.85;;;0.75;;
70026;SDS011;57506;50.092;15.804;2023-03-26T04:04:49;2.95;;;0.50;;
70026;SDS011;57506;50.092;15.804;2023-03-26T04:07:18;3.72;;;0.50;;
70026;SDS011;57506;50.092;15.804;2023-03-26T04:09:45;3.47;;;0.60;;
70026;SDS011;57506;50.092;15.804;2023-03-26T04:12:10;4.22;;;0.60;;
70026;SDS011;57506;50.092;15.804;2023-03-26T04:14:36;5.50;;;0.90;;
70026;SDS011;57506;50.092;15.804;2023-03-26T04:17:01;6.13;;;1.13;;
70026;SDS011;57506;50.092;15.804;2023-03-26T04:19:29;6.43;;;1.02;;
70026;SDS011;57506;50.092;15.804;2023-03-26T04:21:55;4.70;;;0.68;;
70026;SDS011;57506;50.092;15.804;2023-03-26T04:24:26;4.63;;;0.70;;
70026;SDS011;57506;50.092;15.804;2023-03-26T04:26:58;3.85;;;0.85;;
70026;SDS011;57506;50.092;15.804;2023-03-26T04:29:25;5.77;;;0.80;;
70026;SDS011;57506;50.092;15.804;2023-03-26T04:31:53;5.53;;;0.75;;
70026;SDS011;57506;50.092;15.804;2023-03-26T04:34:23;4.60;;;0.73;;
70026;SDS011;57506;50.092;15.804;2023-03-26T04:36:52;6.30;;;0.90;;
70026;SDS011;57506;50.092;15.804;2023-03-26T04:39:18;5.57;;;0.90;;
70026;SDS011;57506;50.092;15.804;2023-03-26T04:41:53;6.17;;;0.80;;
70026;SDS011;57506;50.092;15.804;2023-03-26T04:44:22;5.18;;;0.75;;
70026;SDS011;57506;50.092;15.804;2023-03-26T04:46:50;4.75;;;1.00;;
70026;SDS011;57506;50.092;15.804;2023-03-26T04:49:19;5.15;;;0.80;;
70026;SDS011;57506;50.092;15.804;2023-03-26T04:51:44;3.70;;;0.70;;
70026;SDS011;57506;50.092;15.804;2023-03-26T04:54:11;5.28;;;0.90;;
70026;SDS011;57506;50.092;15.804;2023-03-26T04:59:23;5.22;;;0.60;;
70026;SDS011;57506;50.092;15.804;2023-03-26T05:01:59;4.07;;;0.77;;
70026;SDS011;57506;50.092;15.804;2023-03-26T05:04:26;5.07;;;0.52;;
70026;SDS011;57506;50.092;15.804;2023-03-26T05:06:56;4.55;;;0.70;;
70026;SDS011;57506;50.092;15.804;2023-03-26T05:09:25;4.78;;;0.60;;
70026;SDS011;57506;50.092;15.804;2023-03-26T05:11:51;3.72;;;0.70;;
70026;SDS011;57506;50.092;15.804;2023-03-26T05:14:17;4.30;;;0.70;;
70026;SDS011;57506;50.092;15.804;2023-03-26T05:16:43;6.57;;;0.70;;
70026;SDS011;57506;50.092;15.804;2023-03-26T05:19:11;5.72;;;0.93;;
70026;SDS011;57506;50.092;15.804;2023-03-26T05:21:37;3.50;;;0.50;;
70026;SDS011;57506;50.092;15.804;2023-03-26T05:24:03;6.00;;;0.65;;
70026;SDS011;57506;50.092;15.804;2023-03-26T05:26:30;6.97;;;1.13;;
70026;SDS011;57506;50.092;15.804;2023-03-26T05:28:57;4.00;;;0.67;;
70026;SDS011;57506;50.092;15.804;2023-03-26T05:31:22;4.65;;;1.10;;
70026;SDS011;57506;50.092;15.804;2023-03-26T05:33:48;4.37;;;0.77;;
70026;SDS011;57506;50.092;15.804;2023-03-26T05:36:15;4.28;;;0.60;;
70026;SDS011;57506;50.092;15.804;2023-03-26T05:38:41;5.65;;;0.57;;
70026;SDS011;57506;50.092;15.804;2023-03-26T05:41:12;3.50;;;0.83;;
70026;SDS011;57506;50.092;15.804;2023-03-26T05:43:37;5.35;;;0.80;;
70026;SDS011;57506;50.092;15.804;2023-03-26T05:46:03;4.97;;;0.85;;
70026;SDS011;57506;50.092;15.804;2023-03-26T05:48:29;5.23;;;0.80;;
70026;SDS011;57506;50.092;15.804;2023-03-26T05:50:55;4.35;;;0.60;;
70026;SDS011;57506;50.092;15.804;2023-03-26T05:53:22;7.47;;;0.82;;
70026;SDS011;57506;50.092;15.804;2023-03-26T05:55:49;5.22;;;0.88;;
70026;SDS011;57506;50.092;15.804;2023-03-26T05:58:28;7.53;;;0.98;;
70026;SDS011;57506;50.092;15.804;2023-03-26T06:01:08;2.80;;;0.60;;
70026;SDS011;57506;50.092;15.804;2023-03-26T06:03:40;4.57;;;0.50;;
70026;SDS011;57506;50.092;15.804;2023-03-26T06:06:09;4.10;;;1.20;;
70026;SDS011;57506;50.092;15.804;2023-03-26T06:08:50;4.20;;;0.60;;
70026;SDS011;57506;50.092;15.804;2023-03-26T06:11:19;3.22;;;0.50;;
70026;SDS011;57506;50.092;15.804;2023-03-26T06:13:45;5.60;;;0.77;;
70026;SDS011;57506;50.092;15.804;2023-03-26T06:16:11;4.88;;;0.80;;
70026;SDS011;57506;50.092;15.804;2023-03-26T06:18:38;3.67;;;0.60;;
70026;SDS011;57506;50.092;15.804;2023-03-26T06:21:04;3.20;;;0.50;;
70026;SDS011;57506;50.092;15.804;2023-03-26T06:23:30;4.80;;;0.93;;
70026;SDS011;57506;50.092;15.804;2023-03-26T06:25:57;4.10;;;0.55;;
70026;SDS011;57506;50.092;15.804;2023-03-26T06:28:23;3.20;;;0.60;;
70026;SDS011;57506;50.092;15.804;2023-03-26T06:30:49;6.03;;;0.60;;
70026;SDS011;57506;50.092;15.804;2023-03-26T06:33:15;3.17;;;0.50;;
70026;SDS011;57506;50.092;15.804;2023-03-26T06:35:41;4.72;;;0.50;;
70026;SDS011;57506;50.092;15.804;2023-03-26T06:38:08;3.90;;;0.63;;
70026;SDS011;57506;50.092;15.804;2023-03-26T06:40:34;4.80;;;0.53;;
70026;SDS011;57506;50.092;15.804;2023-03-26T06:43:00;6.15;;;0.65;;
70026;SDS011;57506;50.092;15.804;2023-03-26T06:45:26;3.05;;;0.50;;
70026;SDS011;57506;50.092;15.804;2023-03-26T06:47:52;3.77;;;0.50;;
70026;SDS011;57506;50.092;15.804;2023-03-26T06:50:18;5.68;;;0.65;;
70026;SDS011;57506;50.092;15.804;2023-03-26T06:52:44;2.92;;;0.50;;
70026;SDS011;57506;50.092;15.804;2023-03-26T06:55:10;4.03;;;0.60;;
70026;SDS011;57506;50.092;15.804;2023-03-26T06:57:36;5.57;;;0.70;;
70026;SDS011;57506;50.092;15.804;2023-03-26T07:00:02;7.15;;;0.88;;
70026;SDS011;57506;50.092;15.804;2023-03-26T07:02:29;4.00;;;0.63;;
70026;SDS011;57506;50.092;15.804;2023-03-26T07:04:54;3.38;;;0.57;;
70026;SDS011;57506;50.092;15.804;2023-03-26T07:07:20;5.07;;;0.50;;
70026;SDS011;57506;50.092;15.804;2023-03-26T07:09:48;2.90;;;0.40;;
70026;SDS011;57506;50.092;15.804;2023-03-26T07:12:14;3.38;;;0.45;;
70026;SDS011;57506;50.092;15.804;2023-03-26T07:14:40;6.20;;;0.70;;
70026;SDS011;57506;50.092;15.804;2023-03-26T07:17:06;5.00;;;0.63;;
70026;SDS011;57506;50.092;15.804;2023-03-26T07:19:31;5.23;;;0.50;;
70026;SDS011;57506;50.092;15.804;2023-03-26T07:21:57;3.17;;;0.60;;
70026;SDS011;57506;50.092;15.804;2023-03-26T07:24:23;4.93;;;0.52;;
70026;SDS011;57506;50.092;15.804;2023-03-26T07:26:52;2.72;;;0.43;;
70026;SDS011;57506;50.092;15.804;2023-03-26T07:29:34;3.03;;;0.40;;
70026;SDS011;57506;50.092;15.804;2023-03-26T07:37:52;5.05;;;0.68;;
70026;SDS011;57506;50.092;15.804;2023-03-26T07:46:03;6.27;;;0.60;;
70026;SDS011;57506;50.092;15.804;2023-03-26T07:48:40;4.15;;;0.52;;
70026;SDS011;57506;50.092;15.804;2023-03-26T07:51:07;4.60;;;0.70;;
70026;SDS011;57506;50.092;15.804;2023-03-26T07:53:33;3.22;;;0.43;;
70026;SDS011;57506;50.092;15.804;2023-03-26T08:04:13;5.43;;;0.55;;
70026;SDS011;57506;50.092;15.804;2023-03-26T08:07:16;5.05;;;0.60;;
70026;SDS011;57506;50.092;15.804;2023-03-26T08:12:37;5.20;;;0.40;;
70026;SDS011;57506;50.092;15.804;2023-03-26T08:15:14;6.03;;;0.70;;
70026;SDS011;57506;50.092;15.804;2023-03-26T08:20:46;5.45;;;0.55;;
70026;SDS011;57506;50.092;15.804;2023-03-26T08:26:24;5.38;;;0.70;;
70026;SDS011;57506;50.092;15.804;2023-03-26T08:31:45;4.22;;;0.60;;
70026;SDS011;57506;50.092;15.804;2023-03-26T08:34:12;5.00;;;0.55;;
70026;SDS011;57506;50.092;15.804;2023-03-26T08:36:38;3.87;;;0.50;;
70026;SDS011;57506;50.092;15.804;2023-03-26T08:39:04;4.38;;;0.60;;
70026;SDS011;57506;50.092;15.804;2023-03-26T08:52:59;6.18;;;0.60;;
70026;SDS011;57506;50.092;15.804;2023-03-26T09:18:44;5.63;;;0.70;;
70026;SDS011;57506;50.092;15.804;2023-03-26T09:33:48;3.97;;;0.65;;
70026;SDS011;57506;50.092;15.804;2023-03-26T09:38:35;8.48;;;0.90;;
70026;SDS011;57506;50.092;15.804;2023-03-26T09:49:08;5.07;;;0.77;;
70026;SDS011;57506;50.092;15.804;2023-03-26T09:54:34;6.70;;;1.00;;
70026;SDS011;57506;50.092;15.804;2023-03-26T09:57:17;5.13;;;0.68;;
70026;SDS011;57506;50.092;15.804;2023-03-26T10:00:14;7.05;;;0.95;;
70026;SDS011;57506;50.092;15.804;2023-03-26T10:08:32;3.47;;;0.60;;
70026;SDS011;57506;50.092;15.804;2023-03-26T10:19:34;4.18;;;0.60;;
70026;SDS011;57506;50.092;15.804;2023-03-26T10:32:50;4.07;;;0.75;;
70026;SDS011;57506;50.092;15.804;2023-03-26T10:43:42;5.93;;;0.52;;
70026;SDS011;57506;50.092;15.804;2023-03-26T10:49:32;6.27;;;1.20;;
70026;SDS011;57506;50.092;15.804;2023-03-26T10:55:33;5.18;;;0.77;;
70026;SDS011;57506;50.092;15.804;2023-03-26T11:00:42;4.30;;;0.70;;
70026;SDS011;57506;50.092;15.804;2023-03-26T11:03:41;5.13;;;0.50;;
70026;SDS011;57506;50.092;15.804;2023-03-26T11:33:29;6.95;;;0.70;;
70026;SDS011;57506;50.092;15.804;2023-03-26T11:36:02;3.42;;;0.70;;
70026;SDS011;57506;50.092;15.804;2023-03-26T11:38:38;3.20;;;0.52;;
70026;SDS011;57506;50.092;15.804;2023-03-26T11:41:17;5.18;;;0.70;;
70026;SDS011;57506;50.092;15.804;2023-03-26T11:43:47;3.93;;;0.77;;
70026;SDS011;57506;50.092;15.804;2023-03-26T11:46:17;4.55;;;0.52;;
70026;SDS011;57506;50.092;15.804;2023-03-26T11:48:48;4.47;;;0.70;;
70026;SDS011;57506;50.092;15.804;2023-03-26T11:51:18;6.10;;;0.70;;
70026;SDS011;57506;50.092;15.804;2023-03-26T11:53:58;4.13;;;0.70;;
70026;SDS011;57506;50.092;15.804;2023-03-26T11:58:58;4.93;;;0.60;;
70026;SDS011;57506;50.092;15.804;2023-03-26T12:04:42;4.97;;;0.80;;
70026;SDS011;57506;50.092;15.804;2023-03-26T12:10:29;4.83;;;0.67;;
70026;SDS011;57506;50.092;15.804;2023-03-26T12:12:58;3.88;;;0.52;;
70026;SDS011;57506;50.092;15.804;2023-03-26T12:15:27;3.70;;;0.73;;
70026;SDS011;57506;50.092;15.804;2023-03-26T12:17:56;4.68;;;0.63;;
70026;SDS011;57506;50.092;15.804;2023-03-26T12:22:49;3.27;;;0.43;;
70026;SDS011;57506;50.092;15.804;2023-03-26T12:25:23;3.80;;;0.70;;
70026;SDS011;57506;50.092;15.804;2023-03-26T12:27:50;3.42;;;0.73;;
70026;SDS011;57506;50.092;15.804;2023-03-26T12:30:37;5.57;;;1.05;;
70026;SDS011;57506;50.092;15.804;2023-03-26T12:33:15;4.47;;;0.70;;
70026;SDS011;57506;50.092;15.804;2023-03-26T12:35:46;5.33;;;0.70;;
70026;SDS011;57506;50.092;15.804;2023-03-26T12:38:23;5.95;;;0.60;;
70026;SDS011;57506;50.092;15.804;2023-03-26T12:48:52;3.27;;;0.60;;
70026;SDS011;57506;50.092;15.804;2023-03-26T13:05:31;5.22;;;0.70;;
70026;SDS011;57506;50.092;15.804;2023-03-26T13:16:12;6.60;;;0.67;;
70026;SDS011;57506;50.092;15.804;2023-03-26T13:21:27;6.10;;;0.80;;
70026;SDS011;57506;50.092;15.804;2023-03-26T13:29:11;4.80;;;0.73;;
70026;SDS011;57506;50.092;15.804;2023-03-26T13:31:52;6.25;;;0.93;;
70026;SDS011;57506;50.092;15.804;2023-03-26T13:51:22;5.35;;;0.90;;
70026;SDS011;57506;50.092;15.804;2023-03-26T13:57:06;4.10;;;0.60;;
70026;SDS011;57506;50.092;15.804;2023-03-26T14:05:06;5.95;;;0.63;;
70026;SDS011;57506;50.092;15.804;2023-03-26T14:10:30;6.57;;;0.70;;
70026;SDS011;57506;50.092;15.804;2023-03-26T14:13:15;7.72;;;0.70;;
70026;SDS011;57506;50.092;15.804;2023-03-26T14:16:34;6.60;;;0.90;;
70026;SDS011;57506;50.092;15.804;2023-03-26T14:18:52;6.32;;;0.98;;
70026;SDS011;57506;50.092;15.804;2023-03-26T14:27:23;5.32;;;0.88;;
70026;SDS011;57506;50.092;15.804;2023-03-26T14:30:03;7.63;;;0.93;;
70026;SDS011;57506;50.092;15.804;2023-03-26T14:35:34;4.05;;;0.95;;
70026;SDS011;57506;50.092;15.804;2023-03-26T14:54:56;5.18;;;1.00;;
70026;SDS011;57506;50.092;15.804;2023-03-26T15:14:21;5.38;;;1.02;;
70026;SDS011;57506;50.092;15.804;2023-03-26T15:19:35;5.95;;;0.95;;
70026;SDS011;57506;50.092;15.804;2023-03-26T15:42:58;7.65;;;0.90;;
70026;SDS011;57506;50.092;15.804;2023-03-26T15:45:38;7.90;;;1.00;;
70026;SDS011;57506;50.092;15.804;2023-03-26T15:51:23;4.90;;;0.95;;
70026;SDS011;57506;50.092;15.804;2023-03-26T15:53:58;8.60;;;1.00;;
70026;SDS011;57506;50.092;15.804;2023-03-26T16:02:07;5.07;;;1.15;;
70026;SDS011;57506;50.092;15.804;2023-03-26T16:04:53;5.03;;;1.20;;
70026;SDS011;57506;50.092;15.804;2023-03-26T16:42:54;10.27;;;2.00;;
70026;SDS011;57506;50.092;15.804;2023-03-26T16:45:54;8.98;;;2.20;;
70026;SDS011;57506;50.092;15.804;2023-03-26T16:48:45;7.47;;;2.33;;
70026;SDS011;57506;50.092;15.804;2023-03-26T16:54:21;11.35;;;2.60;;
70026;SDS011;57506;50.092;15.804;2023-03-26T16:56:59;6.18;;;2.00;;
70026;SDS011;57506;50.092;15.804;2023-03-26T17:05:49;9.95;;;2.20;;
70026;SDS011;57506;50.092;15.804;2023-03-26T17:11:21;8.15;;;2.28;;
70026;SDS011;57506;50.092;15.804;2023-03-26T17:14:21;9.80;;;2.13;;
70026;SDS011;57506;50.092;15.804;2023-03-26T17:22:33;8.50;;;1.60;;
70026;SDS011;57506;50.092;15.804;2023-03-26T17:25:17;9.75;;;2.03;;
70026;SDS011;57506;50.092;15.804;2023-03-26T17:31:17;5.97;;;1.97;;
70026;SDS011;57506;50.092;15.804;2023-03-26T17:33:51;6.55;;;2.10;;
70026;SDS011;57506;50.092;15.804;2023-03-26T17:39:16;10.80;;;2.90;;
70026;SDS011;57506;50.092;15.804;2023-03-26T17:47:16;8.40;;;2.40;;
70026;SDS011;57506;50.092;15.804;2023-03-26T17:49:48;4.20;;;1.75;;
70026;SDS011;57506;50.092;15.804;2023-03-26T17:52:22;9.10;;;2.80;;
70026;SDS011;57506;50.092;15.804;2023-03-26T17:55:14;10.13;;;2.80;;
70026;SDS011;57506;50.092;15.804;2023-03-26T17:57:45;8.80;;;2.70;;
70026;SDS011;57506;50.092;15.804;2023-03-26T18:00:26;9.63;;;2.90;;
70026;SDS011;57506;50.092;15.804;2023-03-26T18:02:56;10.02;;;3.25;;
70026;SDS011;57506;50.092;15.804;2023-03-26T18:05:27;9.70;;;2.63;;
70026;SDS011;57506;50.092;15.804;2023-03-26T18:11:18;8.83;;;2.50;;
70026;SDS011;57506;50.092;15.804;2023-03-26T18:19:10;10.68;;;2.45;;
70026;SDS011;57506;50.092;15.804;2023-03-26T18:21:47;7.70;;;2.38;;
70026;SDS011;57506;50.092;15.804;2023-03-26T18:24:19;6.50;;;2.13;;
70026;SDS011;57506;50.092;15.804;2023-03-26T18:27:01;6.90;;;2.30;;
70026;SDS011;57506;50.092;15.804;2023-03-26T18:29:32;10.00;;;3.08;;
70026;SDS011;57506;50.092;15.804;2023-03-26T18:34:47;13.60;;;4.15;;
70026;SDS011;57506;50.092;15.804;2023-03-26T18:37:23;10.93;;;3.83;;
70026;SDS011;57506;50.092;15.804;2023-03-26T18:40:15;11.52;;;4.40;;
70026;SDS011;57506;50.092;15.804;2023-03-26T18:42:50;17.88;;;9.20;;
70026;SDS011;57506;50.092;15.804;2023-03-26T18:47:55;17.05;;;6.80;;
70026;SDS011;57506;50.092;15.804;2023-03-26T18:50:26;14.33;;;6.33;;
70026;SDS011;57506;50.092;15.804;2023-03-26T18:52:57;12.48;;;5.05;;
70026;SDS011;57506;50.092;15.804;2023-03-26T18:55:28;9.73;;;4.82;;
70026;SDS011;57506;50.092;15.804;2023-03-26T18:57:55;13.13;;;4.07;;
70026;SDS011;57506;50.092;15.804;2023-03-26T19:00:22;11.25;;;3.63;;
70026;SDS011;57506;50.092;15.804;2023-03-26T19:02:56;9.10;;;3.20;;
70026;SDS011;57506;50.092;15.804;2023-03-26T19:05:28;10.02;;;4.18;;
70026;SDS011;57506;50.092;15.804;2023-03-26T19:07:57;8.18;;;3.60;;
70026;SDS011;57506;50.092;15.804;2023-03-26T19:10:27;8.98;;;3.60;;
70026;SDS011;57506;50.092;15.804;2023-03-26T19:12:55;12.23;;;4.30;;
70026;SDS011;57506;50.092;15.804;2023-03-26T19:15:23;11.10;;;3.50;;
70026;SDS011;57506;50.092;15.804;2023-03-26T19:17:52;14.35;;;3.72;;
70026;SDS011;57506;50.092;15.804;2023-03-26T19:20:27;9.07;;;3.45;;
70026;SDS011;57506;50.092;15.804;2023-03-26T19:22:57;14.77;;;5.10;;
70026;SDS011;57506;50.092;15.804;2023-03-26T19:25:33;11.77;;;4.60;;
70026;SDS011;57506;50.092;15.804;2023-03-26T19:28:04;11.20;;;4.53;;
70026;SDS011;57506;50.092;15.804;2023-03-26T19:30:31;8.13;;;4.18;;
70026;SDS011;57506;50.092;15.804;2023-03-26T19:33:10;12.18;;;4.10;;
70026;SDS011;57506;50.092;15.804;2023-03-26T19:35:40;10.88;;;5.20;;
70026;SDS011;57506;50.092;15.804;2023-03-26T19:38:21;10.20;;;4.50;;
70026;SDS011;57506;50.092;15.804;2023-03-26T19:40:51;15.05;;;6.10;;
70026;SDS011;57506;50.092;15.804;2023-03-26T19:43:24;12.40;;;3.90;;
70026;SDS011;57506;50.092;15.804;2023-03-26T19:45:51;12.27;;;4.25;;
70026;SDS011;57506;50.092;15.804;2023-03-26T19:48:20;9.45;;;3.90;;
70026;SDS011;57506;50.092;15.804;2023-03-26T19:51:03;9.17;;;4.10;;
70026;SDS011;57506;50.092;15.804;2023-03-26T19:53:33;12.90;;;4.72;;
70026;SDS011;57506;50.092;15.804;2023-03-26T19:58:34;13.35;;;4.35;;
70026;SDS011;57506;50.092;15.804;2023-03-26T20:01:00;13.45;;;5.47;;
70026;SDS011;57506;50.092;15.804;2023-03-26T20:03:27;20.73;;;8.20;;
70026;SDS011;57506;50.092;15.804;2023-03-26T20:06:04;17.15;;;6.13;;
70026;SDS011;57506;50.092;15.804;2023-03-26T20:08:31;12.05;;;4.45;;
70026;SDS011;57506;50.092;15.804;2023-03-26T20:10:56;12.67;;;5.30;;
70026;SDS011;57506;50.092;15.804;2023-03-26T20:13:22;12.88;;;5.40;;
70026;SDS011;57506;50.092;15.804;2023-03-26T20:16:13;14.67;;;5.40;;
70026;SDS011;57506;50.092;15.804;2023-03-26T20:18:40;16.13;;;7.47;;
70026;SDS011;57506;50.092;15.804;2023-03-26T20:21:10;15.55;;;8.25;;
70026;SDS011;57506;50.092;15.804;2023-03-26T20:23:36;13.63;;;6.37;;
70026;SDS011;57506;50.092;15.804;2023-03-26T20:26:03;15.10;;;5.55;;
70026;SDS011;57506;50.092;15.804;2023-03-26T20:28:29;11.88;;;4.47;;
70026;SDS011;57506;50.092;15.804;2023-03-26T20:30:54;11.03;;;4.37;;
70026;SDS011;57506;50.092;15.804;2023-03-26T20:33:23;10.23;;;4.93;;
70026;SDS011;57506;50.092;15.804;2023-03-26T20:35:50;11.65;;;4.40;;
70026;SDS011;57506;50.092;15.804;2023-03-26T20:38:16;11.23;;;4.97;;
70026;SDS011;57506;50.092;15.804;2023-03-26T20:40:42;15.50;;;4.53;;
70026;SDS011;57506;50.092;15.804;2023-03-26T20:43:12;10.73;;;5.10;;
70026;SDS011;57506;50.092;15.804;2023-03-26T20:45:40;13.27;;;5.15;;
70026;SDS011;57506;50.092;15.804;2023-03-26T20:48:06;12.77;;;6.10;;
70026;SDS011;57506;50.092;15.804;2023-03-26T20:50:34;13.05;;;6.55;;
70026;SDS011;57506;50.092;15.804;2023-03-26T20:53:02;11.70;;;5.95;;
70026;SDS011;57506;50.092;15.804;2023-03-26T20:55:28;11.95;;;5.57;;
70026;SDS011;57506;50.092;15.804;2023-03-26T20:57:54;9.83;;;4.83;;
70026;SDS011;57506;50.092;15.804;2023-03-26T21:00:19;11.20;;;4.60;;
70026;SDS011;57506;50.092;15.804;2023-03-26T21:02:49;10.30;;;4.50;;
70026;SDS011;57506;50.092;15.804;2023-03-26T21:05:19;10.75;;;4.60;;
70026;SDS011;57506;50.092;15.804;2023-03-26T21:07:53;12.40;;;5.28;;
70026;SDS011;57506;50.092;15.804;2023-03-26T21:10:21;10.05;;;5.35;;
70026;SDS011;57506;50.092;15.804;2023-03-26T21:15:42;17.13;;;6.80;;
70026;SDS011;57506;50.092;15.804;2023-03-26T21:18:08;14.68;;;7.38;;
70026;SDS011;57506;50.092;15.804;2023-03-26T21:20:34;14.50;;;6.70;;
70026;SDS011;57506;50.092;15.804;2023-03-26T21:26:08;10.60;;;4.70;;
70026;SDS011;57506;50.092;15.804;2023-03-26T21:28:50;15.32;;;6.60;;
70026;SDS011;57506;50.092;15.804;2023-03-26T21:33:43;10.88;;;5.38;;
70026;SDS011;57506;50.092;15.804;2023-03-26T21:36:10;13.80;;;6.38;;
70026;SDS011;57506;50.092;15.804;2023-03-26T21:38:37;12.70;;;5.37;;
70026;SDS011;57506;50.092;15.804;2023-03-26T21:41:03;15.50;;;5.88;;
70026;SDS011;57506;50.092;15.804;2023-03-26T21:43:29;11.52;;;5.53;;
70026;SDS011;57506;50.092;15.804;2023-03-26T21:45:56;16.40;;;6.85;;
70026;SDS011;57506;50.092;15.804;2023-03-26T21:48:22;18.83;;;8.07;;
70026;SDS011;57506;50.092;15.804;2023-03-26T21:50:48;12.18;;;6.15;;
70026;SDS011;57506;50.092;15.804;2023-03-26T21:53:14;12.73;;;4.60;;
70026;SDS011;57506;50.092;15.804;2023-03-26T22:01:15;13.88;;;5.80;;
70026;SDS011;57506;50.092;15.804;2023-03-26T22:06:24;13.25;;;5.60;;
70026;SDS011;57506;50.092;15.804;2023-03-26T22:08:55;14.27;;;6.30;;